Terminal Aerodrome Forecast
Issued by NWS Buffalo, NY

Current Version | Previous Version | Text Only | Print | Product List | Glossary On
Versions: 1 2 3 4 5 6 7 8 9 10 11 12 13 14 15 16 17 18 19 20 21 22 23 24 25 26 27 28 29 30 31 32 33 34 35 36 37 38 39 40 41 42 43 44 45 46 47 48 49 50
000
FTUS41 KBUF 211120
TAFROC
TAF
KROC 211120Z 2112/2212 20007KT 6SM -RA OVC040 WS015/21040KT
     FM211400 22014G23KT 6SM -SHRA OVC040
     FM211800 25016G26KT P6SM VCSH BKN025
     FM212100 26012G18KT P6SM SCT035 SCT250
     FM220200 25005KT P6SM SCT040 SCT250=

USA.gov is the U.S. government's official web portal to all federal, state and local government web resources and services.